createdAt,value
2018-06-27T00:00:31.597Z,18.17
2018-06-27T00:02:35.967Z,26.70
2018-06-27T00:04:40.277Z,25.43
2018-06-27T00:06:44.605Z,22.47
2018-06-27T00:08:48.886Z,26.90
2018-06-27T00:10:53.246Z,30.10
2018-06-27T00:12:57.585Z,26.90
2018-06-27T00:15:02.134Z,22.23
2018-06-27T00:17:06.634Z,16.47
2018-06-27T00:19:11.242Z,22.10
2018-06-27T00:21:15.802Z,23.20
2018-06-27T00:23:20.078Z,19.13
2018-06-27T00:25:24.356Z,20.87
2018-06-27T00:27:28.581Z,23.87
2018-06-27T00:29:33.161Z,17.23
2018-06-27T00:31:37.559Z,16.20
2018-06-27T00:33:41.578Z,17.13
2018-06-27T00:35:45.870Z,24.90
2018-06-27T00:37:50.197Z,25.03
2018-06-27T00:39:54.514Z,21.47
2018-06-27T00:41:58.838Z,26.03
2018-06-27T00:44:03.123Z,16.83
2018-06-27T00:46:07.121Z,21.00
2018-06-27T00:48:11.461Z,22.90
2018-06-27T00:50:15.750Z,18.93
2018-06-27T00:52:19.755Z,23.87
2018-06-27T00:54:23.864Z,24.13
2018-06-27T00:56:28.106Z,34.27
2018-06-27T00:58:32.373Z,20.73
2018-06-27T01:00:36.702Z,19.97
2018-06-27T01:02:40.707Z,20.03
2018-06-27T01:04:45.008Z,18.73
2018-06-27T01:06:49.383Z,22.77
2018-06-27T01:08:53.525Z,22.07
2018-06-27T01:10:57.878Z,21.47
2018-06-27T01:13:02.180Z,24.73
2018-06-27T01:15:06.696Z,15.87
2018-06-27T01:17:10.650Z,16.90
2018-06-27T01:19:15.171Z,19.90
2018-06-27T01:21:19.688Z,18.50
2018-06-27T01:23:23.910Z,30.40
2018-06-27T01:25:28.510Z,14.53
2018-06-27T01:27:32.548Z,26.87
2018-06-27T01:29:36.797Z,22.57
2018-06-27T01:31:41.109Z,19.07
2018-06-27T01:33:45.702Z,27.23
2018-06-27T01:35:50.014Z,19.93
2018-06-27T01:37:54.506Z,24.37
2018-06-27T01:39:58.781Z,27.07
2018-06-27T01:42:03.369Z,33.03
2018-06-27T01:44:07.946Z,28.93
2018-06-27T01:46:12.194Z,21.50
2018-06-27T01:48:16.336Z,32.20
2018-06-27T01:50:23.085Z,28.90
2018-06-27T01:52:27.378Z,21.13
2018-06-27T01:54:31.375Z,26.20
2018-06-27T01:56:35.643Z,22.77
2018-06-27T01:58:39.955Z,22.53
2018-06-27T02:00:44.285Z,24.33
2018-06-27T02:02:48.314Z,25.30
2018-06-27T02:04:52.733Z,39.87
2018-06-27T02:06:57.006Z,27.40
2018-06-27T02:09:01.427Z,18.60
2018-06-27T02:11:05.590Z,23.83
2018-06-27T02:13:10.018Z,22.10
2018-06-27T02:15:14.057Z,25.53
2018-06-27T02:17:18.315Z,26.90
2018-06-27T02:19:22.298Z,30.13
2018-06-27T02:21:27.007Z,20.30
2018-06-27T02:23:31.061Z,25.77
2018-06-27T02:25:35.598Z,36.03
2018-06-27T02:27:40.212Z,30.70
2018-06-27T02:31:55.355Z,18.90
2018-06-27T02:33:59.846Z,27.20
2018-06-27T02:36:04.961Z,27.53
2018-06-27T02:38:09.564Z,31.33
2018-06-27T02:40:13.573Z,24.70
2018-06-27T02:42:17.729Z,25.53
2018-06-27T02:44:22.377Z,26.17
2018-06-27T02:46:26.658Z,23.20
2018-06-27T02:48:30.990Z,26.13
2018-06-27T02:50:35.288Z,29.37
2018-06-27T02:52:39.289Z,27.43
2018-06-27T02:54:43.886Z,23.03
2018-06-27T02:56:48.490Z,24.63
2018-06-27T02:58:52.754Z,19.27
2018-06-27T03:00:57.439Z,25.03
2018-06-27T03:03:02.149Z,25.80
2018-06-27T03:05:06.213Z,27.67
2018-06-27T03:07:10.437Z,24.30
2018-06-27T03:09:14.966Z,26.67
2018-06-27T03:11:19.223Z,26.03
2018-06-27T03:13:24.409Z,18.53
2018-06-27T03:15:28.410Z,30.00
2018-06-27T03:17:33.717Z,20.87
2018-06-27T03:19:38.098Z,28.43
2018-06-27T03:21:42.096Z,17.33
2018-06-27T03:23:46.563Z,22.97
2018-06-27T03:25:51.179Z,26.17
2018-06-27T03:27:55.405Z,21.03
2018-06-27T03:29:59.725Z,28.60
2018-06-27T03:32:04.384Z,25.70
2018-06-27T03:34:08.660Z,18.07
2018-06-27T03:36:13.327Z,20.20
2018-06-27T03:38:17.950Z,33.20
2018-06-27T03:40:22.254Z,22.07
2018-06-27T03:42:26.533Z,23.83
2018-06-27T03:44:30.806Z,26.00
2018-06-27T03:46:35.080Z,20.77
2018-06-27T03:48:39.761Z,20.73
2018-06-27T03:50:44.526Z,20.63
2018-06-27T03:52:49.753Z,19.83
2018-06-27T03:54:53.763Z,27.90
2018-06-27T03:56:57.878Z,26.70
2018-06-27T03:59:02.147Z,24.53
2018-06-27T04:01:08.175Z,27.50
2018-06-27T04:03:13.032Z,28.87
2018-06-27T04:05:17.246Z,31.90
2018-06-27T04:07:21.840Z,31.67
2018-06-27T04:09:26.487Z,20.70
2018-06-27T04:11:30.490Z,23.63
2018-06-27T04:13:35.316Z,27.53
2018-06-27T04:15:39.569Z,19.80
2018-06-27T04:17:43.640Z,20.03
2018-06-27T04:19:47.636Z,22.80
2018-06-27T04:21:51.637Z,38.13
2018-06-27T04:23:55.878Z,21.57
2018-06-27T04:26:00.180Z,19.93
2018-06-27T04:28:04.491Z,19.90
2018-06-27T04:30:08.804Z,23.53
2018-06-27T04:32:13.083Z,28.50
2018-06-27T04:34:17.450Z,27.60
2018-06-27T04:36:21.697Z,21.77
2018-06-27T04:38:25.971Z,17.67
2018-06-27T04:40:30.273Z,20.50
2018-06-27T04:42:34.686Z,29.73
2018-06-27T04:44:38.896Z,32.93
2018-06-27T04:46:43.206Z,27.73
2018-06-27T04:48:47.606Z,23.90
2018-06-27T04:50:52.243Z,21.97
2018-06-27T04:52:56.579Z,21.80
2018-06-27T04:55:00.880Z,23.87
2018-06-27T04:57:05.089Z,25.23
2018-06-27T04:59:09.634Z,21.47
2018-06-27T05:01:14.127Z,23.00
2018-06-27T05:03:18.380Z,21.43
2018-06-27T05:05:22.677Z,28.57
2018-06-27T05:07:27.295Z,24.47
2018-06-27T05:09:32.089Z,32.07
2018-06-27T05:11:37.173Z,24.33
2018-06-27T05:13:41.661Z,29.00
2018-06-27T05:15:45.901Z,43.10
2018-06-27T05:17:50.713Z,35.77
2018-06-27T05:19:55.042Z,46.43
2018-06-27T05:21:59.320Z,27.87
2018-06-27T05:24:03.638Z,20.97
2018-06-27T05:26:07.865Z,40.33
2018-06-27T05:28:12.224Z,29.67
2018-06-27T05:30:16.226Z,22.17
2018-06-27T05:32:20.552Z,27.40
2018-06-27T05:34:24.826Z,28.30
2018-06-27T05:36:29.081Z,33.23
2018-06-27T05:38:33.329Z,19.10
2018-06-27T05:40:37.638Z,37.93
2018-06-27T05:42:42.493Z,23.83
2018-06-27T05:44:47.079Z,29.03
2018-06-27T05:46:51.761Z,29.20
2018-06-27T05:48:56.114Z,30.57
2018-06-27T05:51:00.450Z,22.17
2018-06-27T05:53:04.724Z,25.57
2018-06-27T05:55:10.795Z,27.10
2018-06-27T05:57:15.025Z,25.43
2018-06-27T05:59:19.306Z,25.83
2018-06-27T06:01:23.555Z,24.07
2018-06-27T06:03:28.213Z,35.80
2018-06-27T06:05:32.509Z,19.53
2018-06-27T06:07:36.554Z,22.50
2018-06-27T06:09:40.482Z,18.07
2018-06-27T06:11:44.781Z,19.63
2018-06-27T06:13:49.365Z,21.20
2018-06-27T06:15:53.833Z,21.80
2018-06-27T06:17:58.201Z,20.40
2018-06-27T06:20:02.222Z,16.90
2018-06-27T06:22:06.141Z,22.43
2018-06-27T06:24:10.316Z,20.00
2018-06-27T06:26:14.578Z,14.53
2018-06-27T06:28:19.207Z,10.20
2018-06-27T06:30:23.520Z,13.80
2018-06-27T06:32:27.847Z,11.53
2018-06-27T06:34:32.341Z,10.03
2018-06-27T06:36:36.641Z,10.47
2018-06-27T06:38:40.936Z,10.63
2018-06-27T06:40:45.215Z,6.57
2018-06-27T06:42:49.659Z,9.30
2018-06-27T06:44:54.785Z,10.53
2018-06-27T06:46:58.812Z,8.13
2018-06-27T06:49:03.602Z,10.60
2018-06-27T06:51:07.676Z,12.00
2018-06-27T06:53:11.999Z,11.43
2018-06-27T06:55:16.045Z,10.50
2018-06-27T06:57:19.659Z,8.23
2018-06-27T06:59:24.138Z,10.53
2018-06-27T07:01:28.289Z,10.83
2018-06-27T07:03:32.513Z,6.30
2018-06-27T07:05:36.753Z,15.97
2018-06-27T07:07:41.924Z,7.93
2018-06-27T07:09:46.306Z,7.83
2018-06-27T07:11:50.872Z,10.43
2018-06-27T07:13:55.352Z,11.27
2018-06-27T07:15:59.941Z,7.53
2018-06-27T07:18:04.292Z,7.60
2018-06-27T07:20:08.388Z,4.70
2018-06-27T07:22:12.228Z,5.37
2018-06-27T07:24:16.233Z,10.23
2018-06-27T07:26:20.906Z,4.20
2018-06-27T07:28:24.954Z,6.90
2018-06-27T07:30:29.369Z,4.27
2018-06-27T07:32:33.322Z,3.80
2018-06-27T07:34:37.558Z,4.97
2018-06-27T07:36:41.827Z,3.27
2018-06-27T07:38:46.742Z,6.93
2018-06-27T07:40:50.826Z,2.30
2018-06-27T07:42:54.949Z,3.67
2018-06-27T07:44:59.211Z,3.03
2018-06-27T07:47:03.572Z,5.40
2018-06-27T07:49:07.757Z,5.37
2018-06-27T07:51:11.988Z,5.37
2018-06-27T07:53:16.287Z,4.73
2018-06-27T07:55:20.306Z,7.10
2018-06-27T07:57:24.593Z,7.87
2018-06-27T07:59:28.838Z,4.23
2018-06-27T08:01:33.091Z,8.00
2018-06-27T08:03:37.238Z,2.63
2018-06-27T08:05:41.783Z,4.13
2018-06-27T08:07:46.024Z,7.37
2018-06-27T08:09:50.030Z,4.37
2018-06-27T08:11:54.291Z,11.67
2018-06-27T08:13:58.524Z,9.23
2018-06-27T08:16:03.150Z,4.07
2018-06-27T08:18:07.415Z,5.03
2018-06-27T08:20:12.242Z,3.93
2018-06-27T08:22:16.806Z,4.47
2018-06-27T08:24:21.054Z,3.53
2018-06-27T08:26:25.582Z,4.50
2018-06-27T08:28:29.846Z,2.30
2018-06-27T08:30:34.243Z,5.63
2018-06-27T08:32:38.251Z,5.00
2018-06-27T08:34:42.564Z,3.57
2018-06-27T08:36:46.778Z,2.27
2018-06-27T08:38:51.090Z,7.77
2018-06-27T08:40:55.478Z,3.83
2018-06-27T08:42:59.421Z,3.27
2018-06-27T08:45:04.366Z,6.33
2018-06-27T08:47:08.317Z,4.60
2018-06-27T08:49:13.074Z,3.63
2018-06-27T08:51:17.279Z,3.20
2018-06-27T08:53:21.536Z,3.20
2018-06-27T08:55:25.795Z,6.00
2018-06-27T08:57:30.070Z,2.33
2018-06-27T08:59:34.418Z,17.07
2018-06-27T09:01:38.645Z,5.33
2018-06-27T09:03:43.233Z,4.13
2018-06-27T09:05:47.727Z,3.90
2018-06-27T09:07:52.186Z,2.40
2018-06-27T09:09:56.619Z,3.33
2018-06-27T09:12:00.889Z,2.60
2018-06-27T09:14:05.468Z,3.43
2018-06-27T09:16:10.050Z,3.90
2018-06-27T09:18:14.795Z,3.50
2018-06-27T09:20:19.335Z,2.40
2018-06-27T09:22:23.628Z,3.03
2018-06-27T09:24:27.842Z,2.13
2018-06-27T09:26:32.535Z,2.57
2018-06-27T09:28:36.920Z,2.13
2018-06-27T09:30:40.898Z,1.90
2018-06-27T09:32:45.423Z,2.37
2018-06-27T09:34:49.674Z,4.33
2018-06-27T09:36:54.170Z,3.70
2018-06-27T09:38:58.385Z,1.43
2018-06-27T09:41:02.659Z,1.40
2018-06-27T09:43:07.323Z,3.60
2018-06-27T09:45:11.885Z,3.17
2018-06-27T09:47:15.867Z,2.37
2018-06-27T09:49:20.152Z,3.53
2018-06-27T09:51:24.402Z,2.10
2018-06-27T09:53:28.728Z,3.53
2018-06-27T09:55:32.718Z,1.60
2018-06-27T09:57:37.316Z,2.17
2018-06-27T09:59:42.474Z,9.20
2018-06-27T10:01:46.719Z,3.00
2018-06-27T10:03:51.156Z,1.20
2018-06-27T10:05:55.642Z,2.53
2018-06-27T10:07:59.922Z,2.40
2018-06-27T10:10:04.171Z,1.77
2018-06-27T10:12:08.503Z,1.20
2018-06-27T10:14:12.866Z,0.90
2018-06-27T10:16:17.170Z,1.90
2018-06-27T10:18:21.436Z,1.33
2018-06-27T10:20:26.398Z,8.20
2018-06-27T10:22:30.814Z,1.90
2018-06-27T10:24:35.442Z,1.70
2018-06-27T10:26:40.270Z,0.80
2018-06-27T10:28:44.343Z,4.07
2018-06-27T10:30:49.134Z,2.13
2018-06-27T10:32:53.154Z,1.20
2018-06-27T10:34:57.282Z,1.37
2018-06-27T10:37:01.783Z,1.20
2018-06-27T10:39:08.751Z,2.33
2018-06-27T10:41:12.781Z,1.50
2018-06-27T10:43:17.048Z,2.90
2018-06-27T10:45:21.650Z,4.40
2018-06-27T10:47:25.905Z,2.30
2018-06-27T10:49:30.158Z,1.20
2018-06-27T10:51:35.003Z,1.30
2018-06-27T10:53:39.254Z,1.20
2018-06-27T10:55:43.522Z,2.97
2018-06-27T10:57:47.815Z,1.73
2018-06-27T10:59:52.794Z,1.53
2018-06-27T11:01:57.054Z,1.60
2018-06-27T11:04:01.361Z,2.40
2018-06-27T11:06:06.273Z,5.77
2018-06-27T11:08:10.592Z,1.47
2018-06-27T11:10:15.270Z,4.00
2018-06-27T11:12:19.642Z,1.23
2018-06-27T11:14:23.870Z,4.60
2018-06-27T11:16:28.282Z,1.33
2018-06-27T11:18:32.887Z,2.43
2018-06-27T11:20:37.205Z,1.60
2018-06-27T11:22:41.587Z,1.83
2018-06-27T11:24:45.914Z,1.10
2018-06-27T11:26:50.301Z,1.37
2018-06-27T11:28:55.153Z,1.50
2018-06-27T11:30:59.157Z,1.37
2018-06-27T11:33:03.297Z,3.70
2018-06-27T11:35:07.861Z,1.50
2018-06-27T11:37:11.850Z,1.90
2018-06-27T11:39:16.102Z,2.10
2018-06-27T11:41:20.424Z,2.83
2018-06-27T11:43:24.495Z,3.60
2018-06-27T11:45:29.145Z,3.30
2018-06-27T11:47:33.402Z,4.30
2018-06-27T11:49:37.648Z,1.37
2018-06-27T11:51:42.073Z,1.40
2018-06-27T11:53:46.150Z,5.40
2018-06-27T11:55:50.952Z,2.40
2018-06-27T11:57:55.884Z,2.45
2018-06-27T12:00:00.538Z,1.90
2018-06-27T12:02:05.736Z,1.52
2018-06-27T12:04:10.481Z,2.30
2018-06-27T12:06:15.372Z,1.60
2018-06-27T12:08:20.524Z,1.98
2018-06-27T12:10:25.338Z,3.10
2018-06-27T12:12:29.973Z,1.40
2018-06-27T12:14:34.765Z,1.55
2018-06-27T12:16:39.094Z,1.75
2018-06-27T12:18:43.340Z,1.15
2018-06-27T12:20:47.672Z,5.17
2018-06-27T12:22:52.089Z,1.35
2018-06-27T12:24:56.350Z,1.70
2018-06-27T12:27:01.146Z,1.37
2018-06-27T12:29:05.738Z,1.70
2018-06-27T12:31:09.989Z,2.20
2018-06-27T12:33:14.031Z,3.37
2018-06-27T12:35:19.013Z,2.02
2018-06-27T12:37:23.579Z,2.12
2018-06-27T12:39:28.126Z,1.50
2018-06-27T12:41:32.412Z,6.15
2018-06-27T12:43:36.728Z,3.77
2018-06-27T12:45:41.672Z,1.70
2018-06-27T12:47:46.112Z,1.70
2018-06-27T12:49:50.147Z,1.40
2018-06-27T12:51:55.007Z,2.33
2018-06-27T12:53:59.206Z,1.50
2018-06-27T12:56:03.791Z,1.42
2018-06-27T12:58:08.309Z,1.50
2018-06-27T13:00:12.679Z,1.90
2018-06-27T13:02:17.261Z,1.60
2018-06-27T13:04:21.611Z,1.70
2018-06-27T13:06:26.228Z,1.50
2018-06-27T13:08:30.487Z,2.02
2018-06-27T13:10:34.753Z,6.40
2018-06-27T13:12:39.366Z,4.17
2018-06-27T13:14:44.554Z,3.77
2018-06-27T13:16:49.702Z,3.25
2018-06-27T13:18:54.557Z,3.83
2018-06-27T13:20:59.267Z,1.50
2018-06-27T13:23:04.425Z,2.85
2018-06-27T13:25:09.746Z,2.42
2018-06-27T13:27:14.862Z,3.17
2018-06-27T13:29:19.662Z,1.30
2018-06-27T13:31:24.414Z,4.15
2018-06-27T13:33:29.198Z,3.02
2018-06-27T13:35:33.542Z,2.80
2018-06-27T13:37:38.294Z,1.90
2018-06-27T13:39:43.524Z,1.57
2018-06-27T13:41:48.321Z,3.45
2018-06-27T13:43:53.302Z,1.65
2018-06-27T13:45:58.126Z,2.75
2018-06-27T13:48:02.922Z,1.50
2018-06-27T13:50:06.926Z,2.20
2018-06-27T13:52:11.991Z,1.20
2018-06-27T13:54:17.151Z,2.80
2018-06-27T13:56:22.609Z,1.60
2018-06-27T13:58:28.092Z,4.12
2018-06-27T14:00:32.890Z,5.30
2018-06-27T14:02:37.697Z,6.65
2018-06-27T14:04:42.817Z,2.35
2018-06-27T14:06:47.409Z,6.13
2018-06-27T14:08:52.340Z,2.75
2018-06-27T14:10:57.445Z,5.33
2018-06-27T14:13:02.268Z,3.22
2018-06-27T14:15:07.366Z,1.90
2018-06-27T14:17:11.651Z,1.30
2018-06-27T14:19:16.198Z,2.17
2018-06-27T14:21:20.993Z,2.40
2018-06-27T14:23:25.238Z,1.20
2018-06-27T14:25:29.821Z,2.27
2018-06-27T14:27:34.058Z,4.60
2018-06-27T14:29:38.863Z,2.10
2018-06-27T14:31:43.706Z,1.45
2018-06-27T14:33:48.301Z,6.42
2018-06-27T14:35:53.510Z,1.50
2018-06-27T14:37:57.805Z,1.80
2018-06-27T14:40:02.660Z,2.70
2018-06-27T14:42:07.126Z,2.02
2018-06-27T14:44:11.391Z,3.37
2018-06-27T14:46:15.723Z,1.67
2018-06-27T14:48:20.869Z,2.95
2018-06-27T14:50:25.702Z,1.55
2018-06-27T14:52:30.719Z,3.05
2018-06-27T14:54:35.186Z,3.27
2018-06-27T14:56:39.853Z,1.50
2018-06-27T14:58:44.113Z,1.60
2018-06-27T15:00:48.394Z,1.50
2018-06-27T15:02:53.304Z,2.77
2018-06-27T15:04:58.167Z,2.87
2018-06-27T15:07:03.003Z,2.05
2018-06-27T15:09:08.929Z,2.45
2018-06-27T15:11:14.046Z,1.52
2018-06-27T15:13:18.918Z,1.55
2018-06-27T15:15:23.779Z,1.55
2018-06-27T15:17:28.630Z,2.62
2018-06-27T15:19:33.495Z,1.50
2018-06-27T15:21:38.380Z,1.82
2018-06-27T15:23:43.194Z,3.37
2018-06-27T15:25:48.098Z,2.27
2018-06-27T15:27:52.886Z,1.70
2018-06-27T15:29:57.988Z,2.90
2018-06-27T15:32:02.801Z,3.67
2018-06-27T15:34:07.927Z,3.87
2018-06-27T15:36:12.478Z,2.60
2018-06-27T15:38:17.294Z,4.12
2018-06-27T15:40:22.135Z,3.08
2018-06-27T15:42:26.930Z,1.65
2018-06-27T15:44:31.170Z,3.33
2018-06-27T15:46:35.986Z,2.57
2018-06-27T15:48:41.282Z,1.57
2018-06-27T15:50:45.765Z,3.17
2018-06-27T15:52:50.906Z,4.47
2018-06-27T15:54:55.509Z,2.40
2018-06-27T15:57:00.087Z,1.77
2018-06-27T15:59:04.718Z,5.17
2018-06-27T16:01:09.607Z,2.50
2018-06-27T16:03:14.230Z,1.70
2018-06-27T16:05:18.467Z,2.30
2018-06-27T16:07:22.762Z,2.00
2018-06-27T16:09:27.578Z,2.30
2018-06-27T16:11:31.962Z,1.83
2018-06-27T16:13:36.853Z,1.60
2018-06-27T16:15:40.990Z,2.53
2018-06-27T16:17:45.215Z,4.60
2018-06-27T16:19:49.994Z,1.75
2018-06-27T16:21:54.234Z,2.30
2018-06-27T16:23:59.429Z,1.80
2018-06-27T16:26:04.109Z,2.70
2018-06-27T16:28:09.250Z,2.12
2018-06-27T16:30:14.078Z,1.50
2018-06-27T16:32:18.879Z,1.40
2018-06-27T16:34:23.706Z,1.52
2018-06-27T16:36:28.395Z,2.23
2018-06-27T16:38:33.204Z,1.50
2018-06-27T16:40:38.072Z,1.65
2018-06-27T16:42:43.321Z,1.75
2018-06-27T16:44:47.968Z,3.27
2018-06-27T16:46:53.097Z,2.60
2018-06-27T16:48:58.114Z,4.22
2018-06-27T16:51:02.479Z,4.03
2018-06-27T16:53:09.227Z,3.63
2018-06-27T16:55:13.490Z,2.60
2018-06-27T16:57:18.433Z,3.70
2018-06-27T16:59:22.867Z,1.50
2018-06-27T17:01:27.559Z,1.57
2018-06-27T17:03:31.631Z,2.43
2018-06-27T17:05:36.353Z,3.00
2018-06-27T17:07:40.641Z,4.73
2018-06-27T17:09:45.028Z,3.60
2018-06-27T17:11:49.640Z,2.43
2018-06-27T17:13:53.899Z,3.40
2018-06-27T17:15:58.125Z,3.87
2018-06-27T17:18:02.411Z,4.83
2018-06-27T17:20:07.012Z,1.40
2018-06-27T17:22:11.730Z,1.90
2018-06-27T17:24:16.013Z,9.80
2018-06-27T17:26:20.634Z,5.83
2018-06-27T17:28:24.874Z,2.83
2018-06-27T17:30:28.883Z,3.87
2018-06-27T17:32:33.130Z,2.13
2018-06-27T17:34:37.394Z,2.73
2018-06-27T17:36:42.020Z,2.90
2018-06-27T17:38:46.930Z,5.20
2018-06-27T17:40:51.175Z,3.33
2018-06-27T17:42:55.446Z,2.37
2018-06-27T17:44:59.520Z,1.97
2018-06-27T17:47:03.745Z,2.27
2018-06-27T17:49:08.016Z,4.27
2018-06-27T17:51:12.021Z,3.73
2018-06-27T17:53:16.261Z,2.00
2018-06-27T17:55:21.060Z,4.43
2018-06-27T17:57:25.749Z,3.10
2018-06-27T17:59:30.330Z,4.50
2018-06-27T18:01:34.620Z,1.90
2018-06-27T18:03:39.054Z,5.30
2018-06-27T18:05:43.306Z,1.73
2018-06-27T18:07:47.872Z,1.80
2018-06-27T18:09:52.701Z,3.37
2018-06-27T18:11:58.049Z,2.60
2018-06-27T18:14:02.859Z,6.83
2018-06-27T18:16:06.847Z,5.17
2018-06-27T18:18:11.688Z,3.27
2018-06-27T18:20:16.538Z,5.47
2018-06-27T18:22:20.950Z,2.03
2018-06-27T18:24:25.517Z,1.90
2018-06-27T18:26:30.175Z,2.77
2018-06-27T18:28:34.894Z,2.13
2018-06-27T18:30:39.500Z,2.20
2018-06-27T18:32:43.742Z,3.23
2018-06-27T18:34:48.042Z,1.90
2018-06-27T18:36:52.262Z,4.63
2018-06-27T18:38:56.534Z,2.30
2018-06-27T18:41:00.901Z,3.73
2018-06-27T18:43:05.200Z,2.13
2018-06-27T18:45:09.719Z,3.10
2018-06-27T18:47:14.035Z,2.90
2018-06-27T18:49:18.285Z,3.17
2018-06-27T18:51:22.670Z,2.73
2018-06-27T18:53:26.914Z,2.37
2018-06-27T18:55:31.617Z,3.93
2018-06-27T18:57:35.657Z,2.50
2018-06-27T18:59:40.116Z,5.13
2018-06-27T19:01:44.435Z,2.50
2018-06-27T19:03:49.029Z,2.63
2018-06-27T19:05:53.306Z,6.27
2018-06-27T19:07:57.928Z,2.90
2018-06-27T19:10:02.179Z,11.67
2018-06-27T19:12:06.642Z,2.97
2018-06-27T19:14:11.752Z,16.03
2018-06-27T19:16:16.269Z,5.23
2018-06-27T19:18:20.987Z,2.47
2018-06-27T19:20:25.290Z,3.30
2018-06-27T19:22:29.702Z,4.73
2018-06-27T19:24:34.123Z,1.50
2018-06-27T19:26:38.459Z,3.30
2018-06-27T19:28:42.711Z,2.40
2018-06-27T19:30:47.003Z,3.30
2018-06-27T19:32:51.575Z,2.30
2018-06-27T19:34:56.146Z,7.03
2018-06-27T19:37:00.809Z,2.40
2018-06-27T19:39:06.676Z,3.20
2018-06-27T19:41:11.513Z,3.47
2018-06-27T19:43:16.551Z,3.00
2018-06-27T19:45:20.858Z,4.43
2018-06-27T19:47:25.414Z,7.63
2018-06-27T19:49:29.997Z,3.63
2018-06-27T19:51:34.352Z,2.30
2018-06-27T19:53:38.794Z,3.60
2018-06-27T19:55:42.842Z,3.13
2018-06-27T19:57:47.390Z,15.00
2018-06-27T19:59:51.663Z,20.87
2018-06-27T20:01:55.926Z,5.60
2018-06-27T20:04:00.519Z,7.30
2018-06-27T20:06:05.271Z,3.63
2018-06-27T20:08:09.512Z,2.17
2018-06-27T20:10:14.182Z,3.60
2018-06-27T20:12:18.784Z,2.90
2018-06-27T20:14:23.112Z,6.40
2018-06-27T20:16:27.884Z,3.80
2018-06-27T20:18:32.601Z,9.00
2018-06-27T20:20:37.242Z,2.87
2018-06-27T20:22:41.478Z,2.13
2018-06-27T20:24:46.054Z,2.97
2018-06-27T20:26:50.693Z,3.20
2018-06-27T20:28:54.951Z,6.67
2018-06-27T20:30:59.189Z,3.90
2018-06-27T20:33:03.667Z,3.17
2018-06-27T20:35:07.889Z,6.40
2018-06-27T20:37:11.747Z,4.73
2018-06-27T20:39:16.106Z,2.93
2018-06-27T20:41:20.206Z,2.80
2018-06-27T20:43:24.210Z,3.07
2018-06-27T20:45:28.482Z,4.47
2018-06-27T20:47:32.746Z,4.97
2018-06-27T20:49:36.719Z,2.83
2018-06-27T20:51:41.262Z,2.10
2018-06-27T20:53:45.629Z,4.97
2018-06-27T20:55:49.993Z,4.23
2018-06-27T20:57:54.229Z,3.63
2018-06-27T20:59:58.453Z,3.07
2018-06-27T21:02:03.037Z,3.07
2018-06-27T21:04:07.258Z,8.80
2018-06-27T21:06:11.507Z,4.63
2018-06-27T21:08:15.751Z,8.30
2018-06-27T21:10:19.979Z,7.03
2018-06-27T21:12:24.297Z,2.90
2018-06-27T21:14:28.819Z,4.10
2018-06-27T21:16:33.270Z,5.00
2018-06-27T21:18:37.526Z,2.30
2018-06-27T21:20:42.168Z,4.67
2018-06-27T21:22:46.619Z,3.20
2018-06-27T21:24:50.846Z,4.47
2018-06-27T21:26:55.415Z,6.10
2018-06-27T21:28:59.969Z,9.57
2018-06-27T21:31:04.205Z,6.60
2018-06-27T21:33:08.434Z,11.70
2018-06-27T21:35:12.776Z,2.70
2018-06-27T21:37:16.993Z,5.20
2018-06-27T21:39:21.237Z,3.13
2018-06-27T21:41:25.525Z,3.67
2018-06-27T21:43:29.781Z,2.80
2018-06-27T21:45:34.086Z,4.47
2018-06-27T21:47:38.093Z,3.00
2018-06-27T21:49:42.257Z,2.03
2018-06-27T21:51:46.583Z,2.63
2018-06-27T21:53:50.870Z,3.73
2018-06-27T21:55:57.067Z,4.37
2018-06-27T21:58:01.408Z,6.73
2018-06-27T22:00:06.733Z,2.20
2018-06-27T22:02:10.362Z,2.47
2018-06-27T22:04:14.609Z,3.53
2018-06-27T22:06:19.186Z,2.03
2018-06-27T22:08:23.439Z,4.53
2018-06-27T22:10:28.010Z,3.50
2018-06-27T22:12:32.248Z,3.30
2018-06-27T22:14:37.408Z,2.50
2018-06-27T22:16:41.672Z,2.80
2018-06-27T22:18:46.399Z,2.70
2018-06-27T22:20:50.721Z,7.90
2018-06-27T22:22:55.065Z,6.77
2018-06-27T22:24:59.290Z,2.17
2018-06-27T22:27:03.907Z,4.50
2018-06-27T22:29:08.229Z,2.90
2018-06-27T22:31:12.818Z,3.40
2018-06-27T22:33:17.148Z,3.30
2018-06-27T22:35:21.909Z,4.93
2018-06-27T22:37:26.153Z,3.00
2018-06-27T22:39:30.389Z,3.73
2018-06-27T22:41:34.654Z,3.63
2018-06-27T22:43:39.035Z,2.50
2018-06-27T22:45:43.166Z,5.00
2018-06-27T22:47:48.153Z,3.23
2018-06-27T22:49:52.486Z,2.20
2018-06-27T22:51:56.717Z,2.47
2018-06-27T22:54:01.425Z,4.33
2018-06-27T22:56:06.498Z,3.73
2018-06-27T22:58:11.104Z,2.80
2018-06-27T23:00:15.548Z,2.53
2018-06-27T23:02:19.926Z,2.17
2018-06-27T23:04:24.219Z,4.00
2018-06-27T23:06:28.163Z,4.60
2018-06-27T23:08:32.578Z,2.07
2018-06-27T23:10:36.829Z,2.97
2018-06-27T23:12:41.246Z,2.80
2018-06-27T23:14:45.589Z,2.30
2018-06-27T23:16:49.844Z,2.17
2018-06-27T23:18:53.858Z,2.60
2018-06-27T23:20:58.334Z,1.50
2018-06-27T23:23:02.635Z,2.00
2018-06-27T23:25:06.554Z,2.43
2018-06-27T23:27:11.297Z,2.10
2018-06-27T23:29:15.626Z,1.97
2018-06-27T23:31:19.879Z,3.30
2018-06-27T23:33:24.178Z,5.73
2018-06-27T23:35:28.441Z,1.80
2018-06-27T23:37:32.740Z,3.33
2018-06-27T23:39:37.000Z,1.63
2018-06-27T23:41:42.209Z,2.30
2018-06-27T23:43:46.679Z,7.13
2018-06-27T23:45:50.989Z,5.03
2018-06-27T23:47:55.299Z,6.43
2018-06-27T23:49:59.902Z,2.10
2018-06-27T23:52:04.214Z,1.60
2018-06-27T23:54:08.479Z,2.20
2018-06-27T23:56:12.715Z,1.83
2018-06-27T23:58:16.973Z,4.10
